Time;durP1;ratioP1;P1;durP2;ratioP2;P2;SDS_P1;SDS_P2;PMS_P1;PMS_P2;Temp;Humidity;BMP_temperature;BMP_pressure;BME280_temperature;BME280_humidity;BME280_pressure;Samples;Min_cycle;Max_cycle;Signal;HPM_P1;HPM_P2
2021/03/13 04:33:48;;;;;;;1.50;1.40;;;6.50;99.80;;;;;;6159678;23;20232;-83
2021/03/13 04:36:16;;;;;;;2.13;1.90;;;6.50;99.80;;;;;;6174812;23;20202;-83
2021/03/13 04:38:44;;;;;;;8.93;1.95;;;6.60;99.80;;;;;;6178843;23;20225;-84
2021/03/13 04:41:12;;;;;;;2.40;1.60;;;6.60;99.80;;;;;;6173443;23;20205;-84
2021/03/13 04:43:40;;;;;;;4.05;1.95;;;6.60;99.80;;;;;;6175676;23;20697;-83
2021/03/13 04:46:07;;;;;;;1.45;1.35;;;6.60;99.80;;;;;;6168628;23;20201;-83
2021/03/13 04:48:35;;;;;;;3.50;1.40;;;6.60;99.80;;;;;;6170391;23;20211;-83
2021/03/13 04:51:05;;;;;;;5.00;1.90;;;6.50;99.80;;;;;;6188805;23;20526;-82
2021/03/13 04:53:32;;;;;;;6.33;1.73;;;6.50;99.80;;;;;;6195621;23;20205;-83
2021/03/13 04:55:59;;;;;;;2.05;1.65;;;6.50;99.80;;;;;;6194539;23;20545;-84
2021/03/13 04:58:27;;;;;;;3.95;1.52;;;6.50;99.80;;;;;;6191506;23;20213;-84
2021/03/13 05:00:54;;;;;;;2.08;1.83;;;6.50;99.80;;;;;;6120309;23;20197;-83
2021/03/13 05:03:37;;;;;;;2.30;1.48;;;6.50;99.80;;;;;;6179342;23;20232;-84
2021/03/13 05:06:05;;;;;;;7.95;1.40;;;6.50;99.80;;;;;;6207298;23;20223;-83
2021/03/13 05:08:33;;;;;;;1.40;1.30;;;6.50;99.80;;;;;;6206600;23;20223;-83
2021/03/13 05:11:00;;;;;;;1.30;1.20;;;6.50;99.80;;;;;;6206555;23;20205;-83
2021/03/13 05:13:27;;;;;;;5.03;1.73;;;6.60;99.80;;;;;;6207437;23;20236;-82
2021/03/13 05:15:54;;;;;;;3.13;1.40;;;6.50;99.80;;;;;;6182314;23;20613;-83
2021/03/13 05:18:21;;;;;;;1.50;1.40;;;6.60;99.80;;;;;;6201611;23;20258;-84
2021/03/13 05:20:48;;;;;;;2.20;1.10;;;6.50;99.80;;;;;;6207817;23;20470;-84
2021/03/13 05:23:16;;;;;;;1.60;1.50;;;6.60;99.80;;;;;;6206152;23;20448;-83
2021/03/13 05:25:44;;;;;;;3.30;1.00;;;6.60;99.80;;;;;;6188764;23;20220;-84
2021/03/13 05:28:12;;;;;;;3.25;1.20;;;6.50;99.80;;;;;;6190157;23;20211;-84
2021/03/13 05:30:40;;;;;;;3.00;1.87;;;6.60;99.80;;;;;;6183253;23;20205;-83
2021/03/13 05:33:07;;;;;;;1.00;0.90;;;6.60;99.80;;;;;;6201912;23;20446;-84
2021/03/13 05:35:36;;;;;;;2.30;1.20;;;6.60;99.80;;;;;;6185559;23;20200;-84
2021/03/13 05:38:03;;;;;;;2.10;1.13;;;6.60;99.80;;;;;;6182352;23;20232;-85
2021/03/13 05:40:31;;;;;;;3.15;1.10;;;6.70;99.80;;;;;;6185200;23;20261;-84
2021/03/13 05:42:58;;;;;;;1.20;0.85;;;6.70;99.80;;;;;;6182792;23;20283;-84
2021/03/13 05:45:27;;;;;;;1.10;1.00;;;6.70;99.80;;;;;;6189637;23;20203;-85
2021/03/13 05:47:55;;;;;;;1.10;0.80;;;6.70;99.80;;;;;;6200645;23;20222;-85
2021/03/13 05:50:22;;;;;;;4.13;1.40;;;6.70;99.80;;;;;;6208135;23;20204;-85
2021/03/13 05:52:55;;;;;;;1.92;1.08;;;6.80;99.80;;;;;;6207513;23;20235;-85
2021/03/13 05:55:22;;;;;;;2.13;0.83;;;6.80;99.80;;;;;;6209967;23;20205;-85
2021/03/13 05:57:52;;;;;;;3.25;0.98;;;6.80;99.80;;;;;;6197037;23;21091;-84
2021/03/13 06:00:21;;;;;;;1.35;1.05;;;6.80;99.80;;;;;;6182982;23;20227;-84
2021/03/13 06:02:48;;;;;;;1.10;1.00;;;6.80;99.80;;;;;;6190732;23;20283;-85
2021/03/13 06:05:17;;;;;;;1.38;1.15;;;6.80;99.80;;;;;;6196837;23;20262;-85
2021/03/13 06:07:44;;;;;;;3.30;1.15;;;6.80;99.80;;;;;;6195935;23;20196;-85
2021/03/13 06:10:14;;;;;;;1.35;0.90;;;6.70;99.80;;;;;;6181849;23;20211;-84
2021/03/13 06:12:41;;;;;;;1.57;0.90;;;6.80;99.80;;;;;;6192832;23;20208;-84
2021/03/13 06:15:10;;;;;;;1.55;1.08;;;6.90;99.80;;;;;;6200010;23;21042;-84
2021/03/13 06:17:54;;;;;;;1.33;1.00;;;6.90;99.80;;;;;;6197411;23;20212;-84
2021/03/13 06:20:28;;;;;;;3.40;1.17;;;6.90;99.80;;;;;;6211615;23;20208;-84
2021/03/13 06:22:55;;;;;;;1.70;1.00;;;7.00;99.80;;;;;;6213085;23;20480;-84
2021/03/13 06:25:27;;;;;;;5.55;1.00;;;7.00;99.80;;;;;;6210168;23;20219;-84
2021/03/13 06:28:09;;;;;;;7.57;1.40;;;7.00;99.80;;;;;;6202973;23;20204;-84
2021/03/13 06:30:39;;;;;;;8.33;1.40;;;7.10;99.80;;;;;;6195638;23;20226;-85
2021/03/13 06:33:27;;;;;;;1.60;1.10;;;7.00;99.80;;;;;;6201432;23;20436;-83
2021/03/13 06:35:55;;;;;;;4.95;2.33;;;7.00;99.80;;;;;;6206251;23;20782;-84
2021/03/13 06:38:24;;;;;;;4.60;1.25;;;7.10;99.80;;;;;;6189012;23;20715;-84
2021/03/13 06:40:52;;;;;;;2.50;1.00;;;7.10;99.80;;;;;;6205831;23;20736;-85
2021/03/13 06:43:26;;;;;;;3.35;1.20;;;7.20;99.80;;;;;;6194395;23;20236;-84
2021/03/13 06:46:00;;;;;;;2.50;1.43;;;7.20;99.80;;;;;;6153873;23;20280;-84
2021/03/13 06:48:36;;;;;;;3.05;1.30;;;7.20;99.80;;;;;;6197689;23;20442;-85
2021/03/13 06:51:27;;;;;;;3.42;1.60;;;7.30;99.80;;;;;;6208407;23;20203;-84
2021/03/13 06:54:05;;;;;;;1.60;0.90;;;7.40;99.80;;;;;;6211269;23;20950;-83
2021/03/13 06:56:34;;;;;;;3.27;0.80;;;7.50;99.80;;;;;;6209659;23;20220;-85
2021/03/13 06:59:02;;;;;;;1.75;1.05;;;7.50;99.80;;;;;;6195174;23;20528;-85
2021/03/13 07:01:31;;;;;;;5.90;2.63;;;7.60;99.80;;;;;;6193627;23;20540;-83
2021/03/13 07:04:01;;;;;;;4.57;1.23;;;7.60;99.80;;;;;;6201288;23;21137;-84
2021/03/13 07:06:28;;;;;;;2.30;1.15;;;7.60;99.80;;;;;;6209378;23;20200;-84
2021/03/13 07:08:55;;;;;;;5.15;1.90;;;7.50;99.80;;;;;;6195924;23;20205;-83
2021/03/13 07:11:24;;;;;;;2.15;1.30;;;7.60;99.80;;;;;;6169309;23;20197;-85
2021/03/13 07:13:53;;;;;;;2.13;1.00;;;7.70;99.80;;;;;;6185254;23;20228;-83
2021/03/13 07:16:40;;;;;;;6.50;1.63;;;7.70;99.80;;;;;;6171226;23;20474;-83
2021/03/13 07:19:09;;;;;;;2.25;0.93;;;7.80;99.80;;;;;;6197114;23;20507;-84
2021/03/13 07:21:38;;;;;;;5.97;1.20;;;7.80;99.80;;;;;;6181697;23;20235;-83
2021/03/13 07:24:07;;;;;;;1.70;0.80;;;7.80;99.80;;;;;;6178153;23;20284;-84
2021/03/13 07:26:39;;;;;;;5.50;1.10;;;7.80;99.80;;;;;;6184229;23;20265;-85
2021/03/13 07:29:07;;;;;;;5.10;1.50;;;7.80;99.80;;;;;;6186479;23;20280;-84
2021/03/13 07:31:39;;;;;;;4.80;0.83;;;7.80;99.80;;;;;;6176380;23;20470;-83
2021/03/13 07:34:10;;;;;;;10.65;1.17;;;7.70;99.80;;;;;;6197609;23;20466;-83
2021/03/13 07:36:41;;;;;;;0.80;0.80;;;7.60;99.80;;;;;;6210888;23;20221;-83
2021/03/13 07:39:15;;;;;;;1.25;1.10;;;7.50;99.80;;;;;;6210747;23;20582;-83
2021/03/13 07:41:50;;;;;;;1.05;0.82;;;7.50;99.80;;;;;;6187345;23;20223;-84
2021/03/13 07:44:17;;;;;;;3.00;1.00;;;7.40;99.80;;;;;;6191551;23;20196;-83
2021/03/13 07:46:44;;;;;;;2.70;1.23;;;7.30;99.80;;;;;;6188698;23;20543;-82
2021/03/13 07:49:13;;;;;;;2.45;1.27;;;7.30;99.80;;;;;;6196474;23;20201;-82
2021/03/13 07:51:40;;;;;;;3.72;0.98;;;7.30;99.80;;;;;;6190047;23;20256;-83
2021/03/13 07:54:09;;;;;;;1.83;0.70;;;7.30;99.80;;;;;;6198990;23;20287;-83
2021/03/13 07:56:39;;;;;;;1.57;1.00;;;7.40;99.80;;;;;;6182934;23;20532;-84
2021/03/13 07:59:10;;;;;;;2.77;1.03;;;7.50;99.80;;;;;;6174960;23;20437;-83
2021/03/13 08:01:47;;;;;;;7.50;1.43;;;7.50;99.80;;;;;;6182849;23;20780;-83
2021/03/13 08:04:47;;;;;;;1.42;0.98;;;7.50;99.80;;;;;;6207619;23;20928;-86
2021/03/13 08:07:15;;;;;;;3.90;0.80;;;7.40;99.80;;;;;;6198664;23;20912;-82
2021/03/13 08:09:43;;;;;;;2.65;1.38;;;7.50;99.80;;;;;;6205881;23;20292;-84
2021/03/13 08:12:10;;;;;;;4.70;1.00;;;7.40;99.80;;;;;;6194646;23;20208;-87
2021/03/13 08:14:39;;;;;;;2.45;1.20;;;7.50;99.80;;;;;;6175571;23;20228;-89
2021/03/13 08:17:07;;;;;;;2.28;0.90;;;7.40;99.80;;;;;;6195183;23;20288;-85
2021/03/13 08:19:37;;;;;;;1.73;1.15;;;7.40;99.80;;;;;;6197231;23;20234;-85
2021/03/13 08:22:23;;;;;;;2.97;1.00;;;7.40;99.80;;;;;;6199646;23;20315;-87
2021/03/13 08:24:53;;;;;;;1.63;0.90;;;7.40;99.80;;;;;;6180364;23;20212;-85
2021/03/13 08:27:40;;;;;;;1.15;1.05;;;7.30;99.80;;;;;;6193156;23;20201;-86
2021/03/13 08:30:23;;;;;;;5.57;1.40;;;7.30;99.80;;;;;;6200254;23;20288;-87
2021/03/13 08:33:01;;;;;;;5.20;1.08;;;7.40;99.80;;;;;;6207909;23;20464;-86
2021/03/13 08:35:36;;;;;;;1.30;1.20;;;7.40;99.80;;;;;;6208968;23;20197;-87
2021/03/13 08:38:05;;;;;;;6.07;2.75;;;7.40;99.80;;;;;;6208357;23;20282;-87
2021/03/13 08:40:32;;;;;;;2.53;1.83;;;7.40;99.80;;;;;;6208177;23;20203;-85
2021/03/13 08:43:00;;;;;;;1.42;1.10;;;7.50;99.80;;;;;;6209403;23;20539;-85
2021/03/13 08:45:34;;;;;;;11.90;1.80;;;7.50;99.80;;;;;;6209066;23;20279;-86
2021/03/13 08:48:01;;;;;;;7.07;1.55;;;7.60;99.80;;;;;;6209120;23;20953;-86
2021/03/13 08:50:56;;;;;;;1.20;1.10;;;7.50;99.80;;;;;;6211339;23;20207;-86
2021/03/13 08:53:35;;;;;;;2.80;1.10;;;7.60;99.80;;;;;;6208327;23;20202;-85
2021/03/13 08:56:03;;;;;;;3.92;1.52;;;7.60;99.80;;;;;;6208935;23;20204;-86
2021/03/13 08:58:41;;;;;;;3.05;1.25;;;7.50;99.80;;;;;;6207814;23;20231;-87
2021/03/13 09:01:16;;;;;;;3.40;1.02;;;7.60;99.80;;;;;;6208079;23;20271;-86
2021/03/13 09:03:50;;;;;;;1.90;1.10;;;7.60;99.80;;;;;;6207505;23;20224;-86
2021/03/13 09:06:30;;;;;;;2.95;1.27;;;7.70;99.80;;;;;;6207994;23;20434;-85
2021/03/13 09:09:10;;;;;;;3.85;1.05;;;7.70;99.80;;;;;;6208816;23;20279;-85
2021/03/13 09:11:37;;;;;;;2.10;1.00;;;7.70;99.80;;;;;;6208864;23;20280;-88
2021/03/13 09:14:04;;;;;;;2.57;1.43;;;7.70;99.80;;;;;;6208371;23;20211;-85
2021/03/13 09:16:36;;;;;;;7.40;1.30;;;7.70;99.80;;;;;;6207621;23;20439;-85
2021/03/13 09:19:05;;;;;;;2.03;1.00;;;7.70;99.80;;;;;;6207524;23;20213;-87
2021/03/13 09:21:48;;;;;;;2.08;0.85;;;7.60;99.80;;;;;;6207194;23;20200;-86
2021/03/13 09:24:18;;;;;;;3.10;0.93;;;7.60;99.80;;;;;;6207338;23;20208;-86
2021/03/13 09:26:49;;;;;;;1.43;1.03;;;7.60;99.80;;;;;;6208685;23;20548;-86
2021/03/13 09:29:24;;;;;;;7.00;1.40;;;7.60;99.80;;;;;;6208425;23;20451;-86
2021/03/13 09:31:55;;;;;;;2.70;1.50;;;7.60;99.80;;;;;;6208716;23;20284;-86
2021/03/13 09:34:22;;;;;;;2.00;0.90;;;7.60;99.80;;;;;;6208559;23;20439;-87
2021/03/13 09:37:10;;;;;;;1.60;1.03;;;7.70;99.80;;;;;;6207729;23;20208;-85
2021/03/13 09:39:38;;;;;;;1.25;1.00;;;7.60;99.80;;;;;;6207395;23;20435;-86
2021/03/13 09:42:08;;;;;;;1.30;1.20;;;7.70;99.80;;;;;;6210192;23;20227;-86
2021/03/13 09:44:37;;;;;;;1.20;1.10;;;7.60;99.80;;;;;;6208436;23;20436;-87
2021/03/13 09:47:19;;;;;;;1.55;1.00;;;7.70;99.80;;;;;;6208164;23;20283;-86
2021/03/13 09:49:50;;;;;;;2.33;1.55;;;7.70;99.80;;;;;;6207856;23;20716;-87
2021/03/13 09:52:23;;;;;;;2.88;1.10;;;7.70;99.80;;;;;;6206558;23;20218;-86
2021/03/13 09:54:59;;;;;;;0.97;0.90;;;7.70;99.80;;;;;;6207585;23;20283;-87
2021/03/13 09:57:27;;;;;;;2.65;1.58;;;7.60;99.80;;;;;;6205536;23;20424;-87
2021/03/13 09:59:54;;;;;;;0.83;0.80;;;7.70;99.80;;;;;;6206423;23;20212;-87
2021/03/13 10:02:22;;;;;;;3.33;0.97;;;7.70;99.80;;;;;;6204772;23;20874;-86
2021/03/13 10:04:50;;;;;;;2.55;1.05;;;7.70;99.80;;;;;;6204796;23;20467;-86
2021/03/13 10:07:27;;;;;;;2.33;1.10;;;7.70;99.80;;;;;;6213015;23;20207;-85
2021/03/13 10:09:57;;;;;;;4.67;1.00;;;7.70;99.80;;;;;;6211398;23;21260;-85
2021/03/13 10:12:28;;;;;;;1.10;1.00;;;7.80;99.80;;;;;;6211029;23;20428;-86
2021/03/13 10:14:56;;;;;;;4.07;1.10;;;7.80;99.80;;;;;;6212749;23;20586;-86
2021/03/13 10:17:24;;;;;;;1.57;1.03;;;7.90;99.80;;;;;;6213502;23;20454;-86
2021/03/13 10:19:52;;;;;;;1.73;1.03;;;7.90;99.80;;;;;;6210141;23;20949;-89
2021/03/13 10:22:21;;;;;;;1.93;1.20;;;7.90;99.80;;;;;;6208897;23;20987;-86
2021/03/13 10:24:52;;;;;;;1.10;0.90;;;7.90;99.80;;;;;;6209778;23;20444;-87
2021/03/13 10:27:23;;;;;;;2.40;1.10;;;7.90;99.80;;;;;;6214519;23;20272;-87
2021/03/13 10:29:56;;;;;;;7.97;1.47;;;7.80;99.80;;;;;;6215335;23;20519;-87
2021/03/13 10:32:28;;;;;;;1.53;1.20;;;7.80;99.80;;;;;;6214812;23;20442;-87
2021/03/13 10:35:17;;;;;;;1.55;1.38;;;7.80;99.80;;;;;;6210669;23;20928;-86
2021/03/13 10:37:53;;;;;;;1.38;1.27;;;7.70;99.80;;;;;;6211466;23;20649;-86
2021/03/13 10:40:33;;;;;;;2.47;1.13;;;7.60;99.80;;;;;;6210431;23;20284;-88
2021/03/13 10:43:26;;;;;;;7.50;1.10;;;7.60;99.80;;;;;;6214264;23;20440;-86
2021/03/13 10:46:09;;;;;;;8.50;1.20;;;7.50;99.80;;;;;;6191014;23;21146;-86
2021/03/13 10:48:53;;;;;;;2.17;1.00;;;7.50;99.80;;;;;;6213505;23;20925;-87
2021/03/13 10:51:21;;;;;;;0.90;0.80;;;7.50;99.80;;;;;;6214090;23;20507;-86
2021/03/13 10:53:49;;;;;;;1.75;0.80;;;7.40;99.80;;;;;;6216310;23;20212;-87
2021/03/13 10:56:17;;;;;;;1.05;0.95;;;7.30;99.80;;;;;;6217759;23;20209;-84
2021/03/13 10:58:50;;;;;;;3.03;0.82;;;7.30;99.80;;;;;;6217842;23;20214;-83
2021/03/13 11:01:18;;;;;;;1.98;0.80;;;7.30;99.80;;;;;;6218386;23;20235;-87
2021/03/13 11:03:48;;;;;;;1.10;0.85;;;7.40;99.80;;;;;;6218550;23;20224;-88
2021/03/13 11:06:27;;;;;;;2.20;0.98;;;7.40;99.80;;;;;;6217706;23;20259;-87
2021/03/13 11:08:55;;;;;;;1.20;0.80;;;7.40;99.80;;;;;;6218883;23;20228;-87
2021/03/13 11:11:26;;;;;;;2.17;1.10;;;7.50;99.80;;;;;;6218237;23;20444;-87
2021/03/13 11:13:54;;;;;;;1.35;0.80;;;7.50;99.80;;;;;;6217987;23;20466;-87
2021/03/13 11:16:23;;;;;;;0.90;0.60;;;7.50;99.80;;;;;;6216871;23;20208;-87
2021/03/13 11:18:55;;;;;;;0.70;0.60;;;7.40;99.80;;;;;;6216729;23;20215;-87
2021/03/13 11:21:37;;;;;;;2.40;0.60;;;7.30;99.80;;;;;;6176982;23;20201;-87
2021/03/13 11:24:05;;;;;;;1.35;1.20;;;7.10;99.80;;;;;;6213945;23;20618;-87
2021/03/13 11:26:45;;;;;;;0.70;0.60;;;7.10;99.80;;;;;;6216897;23;20201;-87
2021/03/13 11:29:28;;;;;;;1.30;0.77;;;7.10;99.80;;;;;;6178917;23;20665;-88
2021/03/13 11:31:55;;;;;;;1.95;0.65;;;7.00;99.80;;;;;;6217711;23;20467;-87
2021/03/13 11:34:23;;;;;;;3.20;0.80;;;7.00;99.80;;;;;;6216471;23;20197;-87
2021/03/13 11:36:50;;;;;;;0.80;0.80;;;6.90;99.80;;;;;;6218010;23;21147;-88
2021/03/13 11:39:24;;;;;;;2.35;0.80;;;6.90;99.80;;;;;;6205963;23;20537;-87
2021/03/13 11:42:05;;;;;;;1.20;0.90;;;6.90;99.80;;;;;;6194614;23;20220;-88
2021/03/13 11:44:39;;;;;;;1.60;1.10;;;7.00;99.80;;;;;;6202263;23;20435;-87
2021/03/13 11:47:07;;;;;;;1.30;0.90;;;7.00;99.80;;;;;;6218829;23;20505;-88
2021/03/13 11:49:39;;;;;;;1.50;0.70;;;7.10;99.80;;;;;;6218066;23;20232;-87
2021/03/13 11:52:07;;;;;;;2.58;0.93;;;7.10;99.80;;;;;;6224084;23;20540;-86
2021/03/13 11:54:36;;;;;;;2.15;0.77;;;7.10;99.80;;;;;;6223447;23;20204;-87
2021/03/13 11:57:04;;;;;;;1.33;0.85;;;7.00;99.80;;;;;;6222089;23;20205;-87
2021/03/13 11:59:32;;;;;;;3.13;0.75;;;7.10;99.80;;;;;;6222106;23;20253;-87
2021/03/13 12:02:00;;;;;;;0.70;0.60;;;7.20;99.80;;;;;;6220769;23;20660;-86
2021/03/13 12:04:27;;;;;;;0.93;0.70;;;7.30;99.80;;;;;;6219204;23;20431;-88
2021/03/13 12:06:56;;;;;;;1.73;0.85;;;7.40;99.80;;;;;;6224563;23;20208;-86
2021/03/13 12:09:24;;;;;;;4.17;1.50;;;7.40;99.80;;;;;;6209355;23;20201;-86
2021/03/13 12:11:51;;;;;;;2.80;2.25;;;7.40;99.80;;;;;;6214788;23;20884;-88
2021/03/13 12:14:20;;;;;;;1.83;1.08;;;7.30;99.80;;;;;;6215148;23;20212;-87
2021/03/13 12:16:47;;;;;;;1.63;1.00;;;7.20;99.80;;;;;;6223744;23;20600;-87
2021/03/13 12:19:16;;;;;;;1.10;0.83;;;7.10;99.80;;;;;;6215905;23;20211;-88
2021/03/13 12:21:43;;;;;;;1.00;0.70;;;7.00;99.80;;;;;;6214863;23;20452;-87
2021/03/13 12:24:11;;;;;;;1.03;0.80;;;7.10;99.80;;;;;;6213447;23;20440;-88
2021/03/13 12:26:38;;;;;;;1.47;1.00;;;7.10;99.80;;;;;;6213929;23;20451;-88
2021/03/13 12:29:05;;;;;;;0.80;0.80;;;7.10;99.80;;;;;;6213977;23;20497;-88
2021/03/13 12:31:32;;;;;;;1.00;0.90;;;7.20;99.80;;;;;;6215393;23;20217;-87
2021/03/13 12:34:00;;;;;;;0.88;0.77;;;7.20;99.80;;;;;;6202844;23;20204;-89
2021/03/13 12:36:28;;;;;;;1.00;0.85;;;7.40;99.80;;;;;;6186091;23;20193;-87
2021/03/13 12:39:06;;;;;;;0.90;0.80;;;7.60;99.80;;;;;;6215206;23;20212;-86
2021/03/13 12:41:33;;;;;;;0.90;0.80;;;8.30;99.80;;;;;;6213624;23;20455;-86
2021/03/13 12:44:01;;;;;;;1.20;0.80;;;9.70;99.80;;;;;;6201961;23;20856;-86
2021/03/13 12:46:28;;;;;;;0.93;0.83;;;11.00;99.60;;;;;;6201671;23;20444;-87
2021/03/13 12:48:55;;;;;;;1.33;0.90;;;12.10;94.40;;;;;;6213752;23;20444;-86
2021/03/13 12:51:22;;;;;;;1.63;0.80;;;12.00;94.70;;;;;;6222168;23;20436;-87
2021/03/13 12:53:51;;;;;;;1.47;0.83;;;11.10;96.00;;;;;;6216870;23;20468;-87
2021/03/13 12:56:18;;;;;;;1.00;0.90;;;10.20;97.90;;;;;;6175249;23;20458;-87
2021/03/13 12:58:45;;;;;;;1.00;0.80;;;9.60;99.80;;;;;;6191787;23;20436;-87
2021/03/13 13:01:12;;;;;;;0.80;0.80;;;9.30;99.80;;;;;;6179068;23;20469;-86
2021/03/13 13:03:39;;;;;;;1.20;0.80;;;8.90;99.80;;;;;;6194799;23;20475;-86
2021/03/13 13:06:07;;;;;;;0.80;0.70;;;8.30;99.80;;;;;;6189646;23;20499;-87
2021/03/13 13:08:34;;;;;;;0.80;0.80;;;8.00;99.80;;;;;;6193127;23;20235;-86
2021/03/13 13:11:02;;;;;;;1.55;1.00;;;7.90;99.80;;;;;;6177344;23;20808;-87
2021/03/13 13:13:29;;;;;;;1.88;1.73;;;8.00;99.80;;;;;;6198576;23;20208;-86
2021/03/13 13:15:58;;;;;;;2.97;1.00;;;8.90;99.80;;;;;;6198381;23;20292;-86
2021/03/13 13:18:28;;;;;;;0.90;0.80;;;9.70;99.80;;;;;;6196792;23;20227;-87
2021/03/13 13:20:55;;;;;;;1.80;0.80;;;10.40;99.80;;;;;;6213119;23;20432;-87
2021/03/13 13:23:22;;;;;;;0.70;0.70;;;12.30;97.40;;;;;;6217909;23;20439;-87
2021/03/13 13:25:50;;;;;;;4.17;1.13;;;15.00;90.80;;;;;;6201294;23;20462;-87
2021/03/13 13:28:17;;;;;;;3.73;1.00;;;16.60;81.50;;;;;;6188101;23;20980;-87
2021/03/13 13:30:45;;;;;;;1.53;1.43;;;16.10;82.60;;;;;;6201159;23;20441;-87
2021/03/13 13:33:12;;;;;;;2.87;1.20;;;14.70;85.30;;;;;;6181141;23;20475;-87
2021/03/13 13:35:41;;;;;;;2.30;1.00;;;13.80;87.40;;;;;;6212728;23;20441;-82
2021/03/13 13:38:09;;;;;;;2.80;0.87;;;13.50;89.40;;;;;;6202301;23;20653;-87
2021/03/13 13:40:36;;;;;;;1.50;1.10;;;13.40;89.30;;;;;;6192563;23;20432;-86
2021/03/13 13:43:04;;;;;;;4.67;1.30;;;14.10;87.00;;;;;;6208223;23;20505;-86
2021/03/13 13:45:32;;;;;;;1.97;1.00;;;15.50;84.50;;;;;;6193321;23;20470;-83
2021/03/13 13:48:00;;;;;;;1.53;1.23;;;16.80;82.00;;;;;;6187183;23;21291;-83
2021/03/13 13:50:28;;;;;;;8.70;1.40;;;16.80;79.50;;;;;;6216492;23;20441;-84
2021/03/13 13:52:56;;;;;;;2.40;1.87;;;15.40;80.90;;;;;;6215188;23;20474;-83
2021/03/13 13:55:23;;;;;;;3.20;1.40;;;13.50;84.80;;;;;;6205845;23;20448;-87
2021/03/13 13:57:50;;;;;;;1.13;0.97;;;12.00;89.60;;;;;;6206938;23;20832;-88
2021/03/13 14:00:20;;;;;;;3.10;1.40;;;11.00;93.60;;;;;;6180966;23;20833;-86
2021/03/13 14:02:50;;;;;;;1.70;1.37;;;10.50;96.90;;;;;;6141796;23;21672;-87
2021/03/13 14:05:18;;;;;;;3.10;1.20;;;10.10;99.70;;;;;;6209643;23;20512;-85
2021/03/13 14:07:46;;;;;;;3.70;1.73;;;10.10;99.20;;;;;;6198442;23;20460;-86
2021/03/13 14:10:27;;;;;;;1.97;1.87;;;9.90;99.80;;;;;;6190769;23;20488;-87
2021/03/13 14:12:55;;;;;;;3.07;1.90;;;10.00;99.80;;;;;;6189611;23;20459;-86
2021/03/13 14:15:22;;;;;;;3.80;2.10;;;10.10;99.70;;;;;;6186616;23;20428;-85
2021/03/13 14:17:50;;;;;;;2.93;2.50;;;10.10;99.80;;;;;;6190401;23;20502;-85
2021/03/13 14:20:18;;;;;;;2.17;1.97;;;10.00;99.80;;;;;;6181313;23;20431;-87
2021/03/13 14:22:46;;;;;;;3.77;2.17;;;9.80;99.80;;;;;;6195245;23;20447;-84
2021/03/13 14:25:14;;;;;;;4.80;2.20;;;9.80;99.80;;;;;;6190376;23;20995;-88
2021/03/13 14:27:41;;;;;;;4.47;2.20;;;10.20;99.20;;;;;;6173973;23;20428;-88
2021/03/13 14:30:10;;;;;;;4.13;1.60;;;10.50;99.10;;;;;;6192254;23;20978;-88
2021/03/13 14:32:38;;;;;;;3.53;1.70;;;11.20;96.30;;;;;;6202461;23;20444;-87
2021/03/13 14:35:11;;;;;;;3.00;1.30;;;11.50;94.40;;;;;;6210948;23;20499;-87
2021/03/13 14:37:39;;;;;;;3.47;1.57;;;12.10;92.50;;;;;;6219694;23;20433;-87
2021/03/13 14:40:07;;;;;;;1.63;1.37;;;11.70;92.10;;;;;;6208217;23;20439;-87
2021/03/13 14:42:34;;;;;;;3.03;1.40;;;11.20;95.10;;;;;;6188309;23;20558;-83
2021/03/13 14:45:01;;;;;;;3.23;1.60;;;10.80;97.20;;;;;;6206052;23;20436;-87
2021/03/13 14:47:28;;;;;;;2.40;1.77;;;10.50;97.10;;;;;;6198249;23;20471;-88
2021/03/13 14:49:55;;;;;;;3.00;1.87;;;10.80;97.70;;;;;;6188170;23;20511;-87
2021/03/13 14:52:23;;;;;;;2.70;1.60;;;11.50;94.50;;;;;;6196228;23;20441;-87
2021/03/13 14:54:50;;;;;;;2.60;1.73;;;11.70;95.30;;;;;;6203157;23;20435;-87
2021/03/13 14:57:19;;;;;;;7.33;2.03;;;11.60;94.10;;;;;;6192889;23;20467;-86
2021/03/13 14:59:46;;;;;;;2.13;1.37;;;11.20;95.00;;;;;;6198130;23;20464;-87
2021/03/13 15:02:13;;;;;;;7.73;2.00;;;10.80;95.70;;;;;;6201105;23;20495;-85
2021/03/13 15:04:41;;;;;;;2.97;1.50;;;10.50;96.80;;;;;;6212311;23;20469;-86
2021/03/13 15:07:09;;;;;;;1.60;1.40;;;10.30;97.70;;;;;;6222213;23;20447;-86
2021/03/13 15:09:37;;;;;;;2.10;1.80;;;10.20;97.20;;;;;;6219462;23;20443;-85
2021/03/13 15:12:05;;;;;;;1.77;1.37;;;9.90;97.90;;;;;;6193415;23;20869;-87
2021/03/13 15:14:32;;;;;;;2.10;1.20;;;9.80;98.90;;;;;;6179814;23;20444;-87
2021/03/13 15:16:59;;;;;;;4.03;1.50;;;9.80;98.40;;;;;;6182032;23;20433;-84
2021/03/13 15:19:26;;;;;;;2.23;1.53;;;9.80;98.70;;;;;;6221168;23;20443;-88
2021/03/13 15:21:53;;;;;;;7.83;2.00;;;9.90;98.30;;;;;;6215953;23;20514;-86
2021/03/13 15:24:20;;;;;;;1.83;1.13;;;9.80;98.00;;;;;;6195844;23;20442;-88
2021/03/13 15:26:48;;;;;;;2.40;1.40;;;9.80;97.20;;;;;;6196676;23;20805;-87
2021/03/13 15:29:15;;;;;;;2.03;1.20;;;9.80;98.60;;;;;;6207171;23;20498;-88
2021/03/13 15:31:42;;;;;;;1.63;1.33;;;9.80;98.40;;;;;;6166003;23;20964;-87
2021/03/13 15:34:10;;;;;;;8.43;1.40;;;9.70;98.50;;;;;;6213064;23;20503;-86
2021/03/13 15:36:37;;;;;;;2.70;1.23;;;9.70;98.50;;;;;;6221235;23;20459;-88
2021/03/13 15:39:04;;;;;;;1.33;1.00;;;9.80;98.30;;;;;;6217989;23;20460;-87
2021/03/13 15:41:38;;;;;;;4.57;0.97;;;11.00;96.50;;;;;;6217569;23;20438;-88
2021/03/13 15:44:10;;;;;;;4.07;1.13;;;12.90;89.70;;;;;;6154761;23;20464;-86
2021/03/13 15:46:37;;;;;;;4.20;0.90;;;14.40;85.40;;;;;;6180880;23;20827;-88
2021/03/13 15:49:06;;;;;;;1.67;0.80;;;13.90;84.30;;;;;;6204310;23;20432;-86
2021/03/13 15:51:34;;;;;;;1.47;0.90;;;13.30;86.00;;;;;;6221819;23;20417;-87
2021/03/13 15:54:01;;;;;;;2.50;0.90;;;12.80;87.50;;;;;;6195691;23;20433;-88
2021/03/13 15:56:28;;;;;;;1.37;0.90;;;12.90;87.90;;;;;;6198268;23;20437;-86
2021/03/13 15:58:56;;;;;;;2.47;1.00;;;13.50;85.10;;;;;;6198300;23;20461;-86
2021/03/13 16:01:24;;;;;;;4.67;1.03;;;13.30;83.40;;;;;;6174730;23;20439;-87
2021/03/13 16:03:51;;;;;;;1.40;1.00;;;11.70;87.60;;;;;;6193297;23;20511;-86
2021/03/13 16:06:19;;;;;;;2.33;1.10;;;10.80;91.80;;;;;;6194177;23;20432;-86
2021/03/13 16:08:46;;;;;;;7.00;1.13;;;10.00;94.30;;;;;;6209695;23;20439;-87
2021/03/13 16:11:13;;;;;;;2.80;1.20;;;9.60;95.60;;;;;;6204675;23;20796;-86
2021/03/13 16:13:40;;;;;;;1.17;1.00;;;9.40;96.30;;;;;;6192596;23;20451;-86
2021/03/13 16:16:08;;;;;;;3.80;1.13;;;9.30;97.60;;;;;;6192929;23;20815;-87
2021/03/13 16:18:37;;;;;;;5.13;1.83;;;9.20;97.60;;;;;;6213850;23;20491;-86
2021/03/13 16:21:05;;;;;;;4.80;1.43;;;9.10;97.80;;;;;;6218080;23;20495;-88
2021/03/13 16:23:41;;;;;;;10.93;1.73;;;8.80;99.80;;;;;;6223500;23;20436;-87
2021/03/13 16:26:15;;;;;;;2.03;1.40;;;8.00;99.80;;;;;;6178392;23;20927;-87
2021/03/13 16:28:47;;;;;;;2.85;1.00;;;7.40;99.80;;;;;;6166385;23;20432;-87
2021/03/13 16:31:17;;;;;;;3.17;1.10;;;7.00;99.80;;;;;;6199934;23;20205;-87
2021/03/13 16:33:45;;;;;;;1.87;0.97;;;6.70;99.80;;;;;;6187729;23;20204;-86
2021/03/13 16:36:13;;;;;;;4.55;1.95;;;6.40;99.80;;;;;;6186339;23;20439;-87
2021/03/13 16:38:40;;;;;;;4.00;2.00;;;6.20;99.80;;;;;;6160495;23;20204;-86
2021/03/13 16:41:07;;;;;;;3.58;1.27;;;6.10;99.80;;;;;;6178272;23;20208;-87
2021/03/13 16:43:36;;;;;;;1.48;1.20;;;6.10;99.80;;;;;;6193441;23;20201;-87
2021/03/13 16:46:03;;;;;;;3.15;1.00;;;6.10;99.80;;;;;;6198860;23;20204;-87
2021/03/13 16:48:31;;;;;;;4.03;1.08;;;6.20;99.80;;;;;;6198954;23;20197;-86
2021/03/13 16:51:04;;;;;;;2.38;0.90;;;6.20;99.80;;;;;;6202996;23;20208;-86
2021/03/13 16:54:29;;;;;;;5.20;1.50;;;6.10;99.80;;;;;;6198180;22;20207;-87
2021/03/13 16:57:06;;;;;;;1.75;0.90;;;6.00;99.80;;;;;;6144488;23;20581;-86
2021/03/13 16:59:34;;;;;;;4.72;1.20;;;6.00;99.80;;;;;;6156635;23;20226;-87
2021/03/13 17:02:03;;;;;;;4.13;1.40;;;6.10;99.80;;;;;;6151414;23;20232;-87
2021/03/13 17:04:32;;;;;;;3.25;1.25;;;6.10;99.80;;;;;;6188804;23;20228;-86
2021/03/13 17:07:01;;;;;;;2.13;0.90;;;6.00;99.80;;;;;;6186036;23;20204;-87
2021/03/13 17:09:29;;;;;;;1.60;1.00;;;5.90;99.80;;;;;;6165408;23;20205;-87
2021/03/13 17:12:03;;;;;;;2.30;1.20;;;5.80;99.80;;;;;;6144825;23;20331;-87
2021/03/13 17:14:31;;;;;;;1.20;1.10;;;5.60;99.80;;;;;;6143119;23;20195;-86
2021/03/13 17:17:20;;;;;;;1.63;1.20;;;5.60;99.80;;;;;;6167217;23;20199;-87
2021/03/13 17:23:13;;;;;;;3.20;1.42;;;5.40;99.80;;;;;;6191643;23;20213;-87
2021/03/13 17:25:41;;;;;;;1.90;1.45;;;5.40;99.80;;;;;;6188239;23;20209;-87
2021/03/13 17:28:09;;;;;;;8.02;3.03;;;5.40;99.80;;;;;;6185871;23;20232;-86
2021/03/13 17:30:37;;;;;;;2.33;2.08;;;5.30;99.80;;;;;;6158587;23;20261;-85
2021/03/13 17:33:08;;;;;;;3.67;2.08;;;5.30;99.80;;;;;;6146263;23;20204;-86
2021/03/13 17:35:38;;;;;;;3.63;2.67;;;5.30;99.80;;;;;;6185271;23;20272;-87
2021/03/13 17:38:06;;;;;;;2.40;1.75;;;5.30;99.80;;;;;;6172374;23;20204;-85
2021/03/13 17:40:43;;;;;;;2.08;1.40;;;5.30;99.80;;;;;;6156109;23;20226;-86
2021/03/13 17:43:16;;;;;;;2.05;1.58;;;5.30;99.80;;;;;;6164837;23;20254;-86
2021/03/13 17:45:52;;;;;;;2.65;2.45;;;5.30;99.80;;;;;;6137800;23;20204;-84
2021/03/13 17:48:22;;;;;;;3.42;1.75;;;5.20;99.80;;;;;;6169972;23;20235;-85